sensor_id;sensor_type;location;lat;lon;timestamp;P1;durP1;ratioP1;P2;durP2;ratioP2
65896;SDS011;52677;50.898;10.854;2024-03-23T00:53:11;28.83;;;16.75;;
65896;SDS011;52677;50.898;10.854;2024-03-23T00:55:12;28.52;;;15.52;;
65896;SDS011;52677;50.898;10.854;2024-03-23T00:57:12;28.98;;;16.33;;
65896;SDS011;52677;50.898;10.854;2024-03-23T00:59:13;31.80;;;17.58;;
65896;SDS011;52677;50.898;10.854;2024-03-23T01:01:13;30.13;;;16.23;;
65896;SDS011;52677;50.898;10.854;2024-03-23T01:03:14;28.30;;;16.13;;
65896;SDS011;52677;50.898;10.854;2024-03-23T01:05:14;28.83;;;16.83;;
65896;SDS011;52677;50.898;10.854;2024-03-23T01:07:14;28.17;;;15.23;;
65896;SDS011;52677;50.898;10.854;2024-03-23T01:09:15;27.02;;;15.07;;
65896;SDS011;52677;50.898;10.854;2024-03-23T01:11:15;29.17;;;16.33;;
65896;SDS011;52677;50.898;10.854;2024-03-23T01:13:15;31.75;;;16.08;;
65896;SDS011;52677;50.898;10.854;2024-03-23T01:15:20;31.13;;;17.02;;
65896;SDS011;52677;50.898;10.854;2024-03-23T01:17:21;31.30;;;16.33;;
65896;SDS011;52677;50.898;10.854;2024-03-23T01:19:21;30.90;;;17.00;;
65896;SDS011;52677;50.898;10.854;2024-03-23T01:21:21;30.27;;;16.42;;
65896;SDS011;52677;50.898;10.854;2024-03-23T01:23:21;32.38;;;16.73;;
65896;SDS011;52677;50.898;10.854;2024-03-23T01:25:22;32.47;;;17.08;;
65896;SDS011;52677;50.898;10.854;2024-03-23T01:27:22;32.03;;;17.27;;
65896;SDS011;52677;50.898;10.854;2024-03-23T01:29:23;30.77;;;15.85;;
65896;SDS011;52677;50.898;10.854;2024-03-23T01:31:23;29.40;;;15.50;;
65896;SDS011;52677;50.898;10.854;2024-03-23T01:33:24;32.58;;;16.63;;
65896;SDS011;52677;50.898;10.854;2024-03-23T01:35:24;32.10;;;16.77;;
65896;SDS011;52677;50.898;10.854;2024-03-23T01:37:24;29.23;;;16.05;;
65896;SDS011;52677;50.898;10.854;2024-03-23T01:39:25;30.50;;;17.20;;
65896;SDS011;52677;50.898;10.854;2024-03-23T01:41:25;31.30;;;16.30;;
65896;SDS011;52677;50.898;10.854;2024-03-23T01:43:25;29.85;;;15.93;;
65896;SDS011;52677;50.898;10.854;2024-03-23T01:45:26;32.83;;;17.90;;
65896;SDS011;52677;50.898;10.854;2024-03-23T01:47:26;29.98;;;15.70;;
65896;SDS011;52677;50.898;10.854;2024-03-23T01:49:26;28.77;;;15.75;;
65896;SDS011;52677;50.898;10.854;2024-03-23T01:51:27;29.15;;;15.60;;
65896;SDS011;52677;50.898;10.854;2024-03-23T01:53:28;32.70;;;18.27;;
65896;SDS011;52677;50.898;10.854;2024-03-23T01:55:29;32.53;;;17.20;;
65896;SDS011;52677;50.898;10.854;2024-03-23T01:57:30;30.50;;;16.83;;
65896;SDS011;52677;50.898;10.854;2024-03-23T01:59:30;30.10;;;15.65;;
65896;SDS011;52677;50.898;10.854;2024-03-23T02:01:34;30.58;;;16.70;;
65896;SDS011;52677;50.898;10.854;2024-03-23T02:03:36;28.92;;;16.13;;
65896;SDS011;52677;50.898;10.854;2024-03-23T02:05:36;32.15;;;17.30;;
65896;SDS011;52677;50.898;10.854;2024-03-23T02:07:38;65.97;;;30.88;;
65896;SDS011;52677;50.898;10.854;2024-03-23T02:09:39;43.88;;;22.90;;
65896;SDS011;52677;50.898;10.854;2024-03-23T02:11:40;38.63;;;18.90;;
65896;SDS011;52677;50.898;10.854;2024-03-23T02:13:40;38.67;;;18.42;;
65896;SDS011;52677;50.898;10.854;2024-03-23T02:15:41;33.83;;;17.42;;
65896;SDS011;52677;50.898;10.854;2024-03-23T02:17:41;31.73;;;17.45;;
65896;SDS011;52677;50.898;10.854;2024-03-23T02:19:42;32.38;;;16.38;;
65896;SDS011;52677;50.898;10.854;2024-03-23T02:21:42;33.28;;;16.63;;
65896;SDS011;52677;50.898;10.854;2024-03-23T02:23:47;31.77;;;16.70;;
65896;SDS011;52677;50.898;10.854;2024-03-23T02:25:47;29.08;;;16.70;;
65896;SDS011;52677;50.898;10.854;2024-03-23T02:27:47;33.20;;;16.13;;
65896;SDS011;52677;50.898;10.854;2024-03-23T02:29:48;30.73;;;16.75;;
65896;SDS011;52677;50.898;10.854;2024-03-23T02:31:48;29.83;;;15.73;;
65896;SDS011;52677;50.898;10.854;2024-03-23T02:33:48;31.45;;;17.13;;
65896;SDS011;52677;50.898;10.854;2024-03-23T02:35:48;32.83;;;16.88;;
65896;SDS011;52677;50.898;10.854;2024-03-23T02:37:49;32.45;;;16.25;;
65896;SDS011;52677;50.898;10.854;2024-03-23T02:39:49;33.30;;;16.67;;
65896;SDS011;52677;50.898;10.854;2024-03-23T02:41:50;33.65;;;16.60;;
65896;SDS011;52677;50.898;10.854;2024-03-23T02:43:50;33.67;;;17.52;;
65896;SDS011;52677;50.898;10.854;2024-03-23T02:45:51;32.25;;;16.15;;
65896;SDS011;52677;50.898;10.854;2024-03-23T02:47:51;28.75;;;16.80;;
65896;SDS011;52677;50.898;10.854;2024-03-23T02:49:52;30.95;;;17.65;;
65896;SDS011;52677;50.898;10.854;2024-03-23T02:51:52;34.90;;;18.88;;
65896;SDS011;52677;50.898;10.854;2024-03-23T02:53:52;35.65;;;18.42;;
65896;SDS011;52677;50.898;10.854;2024-03-23T02:55:53;36.40;;;18.40;;
65896;SDS011;52677;50.898;10.854;2024-03-23T02:57:53;33.40;;;17.45;;
65896;SDS011;52677;50.898;10.854;2024-03-23T02:59:53;34.65;;;17.83;;
65896;SDS011;52677;50.898;10.854;2024-03-23T03:01:54;35.83;;;19.05;;
65896;SDS011;52677;50.898;10.854;2024-03-23T03:03:54;37.15;;;18.98;;
65896;SDS011;52677;50.898;10.854;2024-03-23T03:05:55;33.67;;;18.48;;
65896;SDS011;52677;50.898;10.854;2024-03-23T03:07:56;34.45;;;20.35;;
65896;SDS011;52677;50.898;10.854;2024-03-23T03:09:56;33.45;;;17.98;;
65896;SDS011;52677;50.898;10.854;2024-03-23T03:11:57;33.17;;;17.98;;
65896;SDS011;52677;50.898;10.854;2024-03-23T03:13:57;33.20;;;19.38;;
65896;SDS011;52677;50.898;10.854;2024-03-23T03:16:00;34.78;;;17.48;;
65896;SDS011;52677;50.898;10.854;2024-03-23T03:18:00;33.75;;;18.58;;
65896;SDS011;52677;50.898;10.854;2024-03-23T03:20:00;35.35;;;19.38;;
65896;SDS011;52677;50.898;10.854;2024-03-23T03:22:01;33.80;;;18.30;;
65896;SDS011;52677;50.898;10.854;2024-03-23T03:24:01;33.50;;;17.80;;
65896;SDS011;52677;50.898;10.854;2024-03-23T03:26:02;34.63;;;18.15;;
65896;SDS011;52677;50.898;10.854;2024-03-23T03:28:02;36.40;;;18.50;;
65896;SDS011;52677;50.898;10.854;2024-03-23T03:30:03;33.10;;;17.60;;
65896;SDS011;52677;50.898;10.854;2024-03-23T03:32:06;35.15;;;18.05;;
65896;SDS011;52677;50.898;10.854;2024-03-23T03:34:06;36.85;;;17.88;;
65896;SDS011;52677;50.898;10.854;2024-03-23T03:36:06;37.75;;;18.05;;
65896;SDS011;52677;50.898;10.854;2024-03-23T03:38:07;36.90;;;18.63;;
65896;SDS011;52677;50.898;10.854;2024-03-23T03:40:07;37.28;;;18.95;;
65896;SDS011;52677;50.898;10.854;2024-03-23T03:42:08;33.22;;;17.50;;
65896;SDS011;52677;50.898;10.854;2024-03-23T03:44:09;32.15;;;18.05;;
65896;SDS011;52677;50.898;10.854;2024-03-23T03:46:09;32.55;;;18.02;;
65896;SDS011;52677;50.898;10.854;2024-03-23T03:48:10;36.85;;;19.80;;
65896;SDS011;52677;50.898;10.854;2024-03-23T03:50:11;32.45;;;16.95;;
65896;SDS011;52677;50.898;10.854;2024-03-23T03:52:11;33.58;;;17.67;;
65896;SDS011;52677;50.898;10.854;2024-03-23T03:54:11;28.65;;;16.40;;
65896;SDS011;52677;50.898;10.854;2024-03-23T03:56:12;31.52;;;16.83;;
65896;SDS011;52677;50.898;10.854;2024-03-23T03:58:12;37.88;;;18.75;;
65896;SDS011;52677;50.898;10.854;2024-03-23T04:00:12;35.92;;;18.58;;
65896;SDS011;52677;50.898;10.854;2024-03-23T04:02:13;35.58;;;19.05;;
65896;SDS011;52677;50.898;10.854;2024-03-23T04:04:13;34.45;;;18.67;;
65896;SDS011;52677;50.898;10.854;2024-03-23T04:06:18;33.90;;;17.65;;
65896;SDS011;52677;50.898;10.854;2024-03-23T04:08:19;36.88;;;18.67;;
65896;SDS011;52677;50.898;10.854;2024-03-23T04:10:20;37.80;;;20.00;;
65896;SDS011;52677;50.898;10.854;2024-03-23T04:12:21;37.45;;;18.60;;
65896;SDS011;52677;50.898;10.854;2024-03-23T04:14:21;31.25;;;17.58;;
65896;SDS011;52677;50.898;10.854;2024-03-23T04:16:28;27.92;;;17.17;;
65896;SDS011;52677;50.898;10.854;2024-03-23T04:18:29;32.17;;;17.88;;
65896;SDS011;52677;50.898;10.854;2024-03-23T04:20:29;33.70;;;17.77;;
65896;SDS011;52677;50.898;10.854;2024-03-23T04:22:29;32.25;;;17.58;;
65896;SDS011;52677;50.898;10.854;2024-03-23T04:24:30;39.92;;;19.65;;
65896;SDS011;52677;50.898;10.854;2024-03-23T04:26:30;33.78;;;18.10;;
65896;SDS011;52677;50.898;10.854;2024-03-23T04:28:39;30.73;;;17.05;;
65896;SDS011;52677;50.898;10.854;2024-03-23T04:30:40;38.63;;;19.33;;
65896;SDS011;52677;50.898;10.854;2024-03-23T04:32:40;37.50;;;19.65;;
65896;SDS011;52677;50.898;10.854;2024-03-23T04:34:42;41.40;;;21.15;;
65896;SDS011;52677;50.898;10.854;2024-03-23T04:36:43;41.42;;;18.33;;
65896;SDS011;52677;50.898;10.854;2024-03-23T04:38:43;34.53;;;18.65;;
65896;SDS011;52677;50.898;10.854;2024-03-23T04:40:53;35.88;;;18.92;;
65896;SDS011;52677;50.898;10.854;2024-03-23T04:43:00;36.13;;;19.55;;
65896;SDS011;52677;50.898;10.854;2024-03-23T04:45:01;38.00;;;21.10;;
65896;SDS011;52677;50.898;10.854;2024-03-23T04:47:01;39.17;;;19.45;;
65896;SDS011;52677;50.898;10.854;2024-03-23T04:49:01;39.92;;;20.67;;
65896;SDS011;52677;50.898;10.854;2024-03-23T04:51:04;42.03;;;21.08;;
65896;SDS011;52677;50.898;10.854;2024-03-23T04:53:04;36.25;;;20.02;;
65896;SDS011;52677;50.898;10.854;2024-03-23T04:55:05;41.42;;;21.65;;
65896;SDS011;52677;50.898;10.854;2024-03-23T04:57:05;41.17;;;21.73;;
65896;SDS011;52677;50.898;10.854;2024-03-23T04:59:06;38.63;;;20.52;;
65896;SDS011;52677;50.898;10.854;2024-03-23T05:01:06;47.63;;;22.48;;
65896;SDS011;52677;50.898;10.854;2024-03-23T05:03:07;40.90;;;21.70;;
65896;SDS011;52677;50.898;10.854;2024-03-23T05:05:07;39.08;;;20.75;;
65896;SDS011;52677;50.898;10.854;2024-03-23T05:07:07;43.60;;;21.98;;
65896;SDS011;52677;50.898;10.854;2024-03-23T05:09:08;39.47;;;21.00;;
65896;SDS011;52677;50.898;10.854;2024-03-23T05:11:11;38.95;;;19.45;;
65896;SDS011;52677;50.898;10.854;2024-03-23T05:13:12;38.45;;;20.20;;
65896;SDS011;52677;50.898;10.854;2024-03-23T05:15:12;37.28;;;20.42;;
65896;SDS011;52677;50.898;10.854;2024-03-23T05:17:12;39.45;;;20.80;;
65896;SDS011;52677;50.898;10.854;2024-03-23T05:19:13;41.40;;;20.80;;
65896;SDS011;52677;50.898;10.854;2024-03-23T05:21:13;35.28;;;19.83;;
65896;SDS011;52677;50.898;10.854;2024-03-23T05:23:14;35.28;;;19.95;;
65896;SDS011;52677;50.898;10.854;2024-03-23T05:25:14;40.55;;;20.55;;
65896;SDS011;52677;50.898;10.854;2024-03-23T05:27:16;38.88;;;22.17;;
65896;SDS011;52677;50.898;10.854;2024-03-23T05:29:16;39.28;;;21.00;;
65896;SDS011;52677;50.898;10.854;2024-03-23T05:31:23;45.03;;;21.95;;
65896;SDS011;52677;50.898;10.854;2024-03-23T05:33:25;37.35;;;20.23;;
65896;SDS011;52677;50.898;10.854;2024-03-23T05:35:25;36.53;;;18.88;;
65896;SDS011;52677;50.898;10.854;2024-03-23T05:37:25;39.85;;;19.27;;
65896;SDS011;52677;50.898;10.854;2024-03-23T05:39:25;34.28;;;19.02;;
65896;SDS011;52677;50.898;10.854;2024-03-23T05:41:26;35.88;;;19.23;;
65896;SDS011;52677;50.898;10.854;2024-03-23T05:43:26;39.95;;;19.65;;
65896;SDS011;52677;50.898;10.854;2024-03-23T05:45:28;37.03;;;19.95;;
65896;SDS011;52677;50.898;10.854;2024-03-23T05:47:29;38.90;;;19.48;;
65896;SDS011;52677;50.898;10.854;2024-03-23T05:49:29;34.88;;;19.13;;
65896;SDS011;52677;50.898;10.854;2024-03-23T05:51:29;35.65;;;18.60;;
65896;SDS011;52677;50.898;10.854;2024-03-23T05:53:30;38.45;;;19.67;;
65896;SDS011;52677;50.898;10.854;2024-03-23T05:55:30;37.70;;;20.05;;
65896;SDS011;52677;50.898;10.854;2024-03-23T05:57:30;41.45;;;21.60;;
65896;SDS011;52677;50.898;10.854;2024-03-23T05:59:31;44.95;;;22.30;;
65896;SDS011;52677;50.898;10.854;2024-03-23T06:01:31;43.38;;;20.27;;
65896;SDS011;52677;50.898;10.854;2024-03-23T06:03:32;39.95;;;20.08;;
65896;SDS011;52677;50.898;10.854;2024-03-23T06:05:32;39.20;;;18.95;;
65896;SDS011;52677;50.898;10.854;2024-03-23T06:07:33;31.65;;;16.05;;
65896;SDS011;52677;50.898;10.854;2024-03-23T06:09:33;19.67;;;9.25;;
65896;SDS011;52677;50.898;10.854;2024-03-23T06:11:33;12.25;;;6.30;;
65896;SDS011;52677;50.898;10.854;2024-03-23T06:13:34;14.77;;;5.80;;
65896;SDS011;52677;50.898;10.854;2024-03-23T06:15:35;11.80;;;5.55;;
65896;SDS011;52677;50.898;10.854;2024-03-23T06:17:37;7.38;;;3.88;;
65896;SDS011;52677;50.898;10.854;2024-03-23T06:19:38;8.82;;;4.28;;
65896;SDS011;52677;50.898;10.854;2024-03-23T06:21:42;8.05;;;4.43;;
65896;SDS011;52677;50.898;10.854;2024-03-23T06:23:44;9.70;;;4.05;;
65896;SDS011;52677;50.898;10.854;2024-03-23T06:25:51;7.80;;;4.60;;
65896;SDS011;52677;50.898;10.854;2024-03-23T06:27:51;8.90;;;4.88;;
65896;SDS011;52677;50.898;10.854;2024-03-23T06:29:51;6.78;;;4.03;;
65896;SDS011;52677;50.898;10.854;2024-03-23T06:31:53;10.00;;;5.07;;
65896;SDS011;52677;50.898;10.854;2024-03-23T06:33:55;6.90;;;3.35;;
65896;SDS011;52677;50.898;10.854;2024-03-23T06:35:55;5.07;;;3.65;;
65896;SDS011;52677;50.898;10.854;2024-03-23T06:37:56;9.57;;;4.40;;
65896;SDS011;52677;50.898;10.854;2024-03-23T06:39:56;7.20;;;3.60;;
65896;SDS011;52677;50.898;10.854;2024-03-23T06:41:56;7.85;;;3.70;;
65896;SDS011;52677;50.898;10.854;2024-03-23T06:43:56;6.50;;;3.40;;
65896;SDS011;52677;50.898;10.854;2024-03-23T06:45:57;6.35;;;3.60;;
65896;SDS011;52677;50.898;10.854;2024-03-23T06:47:57;7.07;;;2.95;;
65896;SDS011;52677;50.898;10.854;2024-03-23T06:49:59;7.03;;;3.03;;
65896;SDS011;52677;50.898;10.854;2024-03-23T06:52:03;5.57;;;3.60;;
65896;SDS011;52677;50.898;10.854;2024-03-23T06:54:03;6.85;;;3.40;;
65896;SDS011;52677;50.898;10.854;2024-03-23T06:56:05;4.75;;;2.72;;
65896;SDS011;52677;50.898;10.854;2024-03-23T06:58:06;4.10;;;2.20;;
65896;SDS011;52677;50.898;10.854;2024-03-23T07:00:06;4.15;;;2.20;;
65896;SDS011;52677;50.898;10.854;2024-03-23T07:02:10;4.25;;;2.10;;
65896;SDS011;52677;50.898;10.854;2024-03-23T07:04:10;2.42;;;1.80;;
65896;SDS011;52677;50.898;10.854;2024-03-23T07:06:10;2.83;;;1.60;;
65896;SDS011;52677;50.898;10.854;2024-03-23T07:08:11;2.90;;;1.55;;
65896;SDS011;52677;50.898;10.854;2024-03-23T07:10:11;2.63;;;1.45;;
65896;SDS011;52677;50.898;10.854;2024-03-23T07:12:11;2.92;;;1.45;;
65896;SDS011;52677;50.898;10.854;2024-03-23T07:14:12;2.58;;;1.58;;
65896;SDS011;52677;50.898;10.854;2024-03-23T07:16:13;2.40;;;1.55;;
65896;SDS011;52677;50.898;10.854;2024-03-23T07:18:13;4.28;;;2.38;;
65896;SDS011;52677;50.898;10.854;2024-03-23T07:20:13;7.32;;;4.20;;
65896;SDS011;52677;50.898;10.854;2024-03-23T07:22:14;3.72;;;2.80;;
65896;SDS011;52677;50.898;10.854;2024-03-23T07:24:14;3.28;;;1.60;;
65896;SDS011;52677;50.898;10.854;2024-03-23T07:26:15;2.55;;;1.88;;
65896;SDS011;52677;50.898;10.854;2024-03-23T07:28:15;1.85;;;1.05;;
65896;SDS011;52677;50.898;10.854;2024-03-23T07:30:15;1.05;;;0.80;;
65896;SDS011;52677;50.898;10.854;2024-03-23T07:32:16;1.65;;;0.90;;
65896;SDS011;52677;50.898;10.854;2024-03-23T07:34:16;2.88;;;1.60;;
65896;SDS011;52677;50.898;10.854;2024-03-23T07:36:16;2.60;;;1.90;;
65896;SDS011;52677;50.898;10.854;2024-03-23T07:38:17;1.70;;;1.25;;
65896;SDS011;52677;50.898;10.854;2024-03-23T07:40:17;1.30;;;1.20;;
65896;SDS011;52677;50.898;10.854;2024-03-23T07:42:17;1.52;;;1.20;;
65896;SDS011;52677;50.898;10.854;2024-03-23T07:44:17;1.10;;;1.00;;
65896;SDS011;52677;50.898;10.854;2024-03-23T07:46:18;1.23;;;1.00;;
65896;SDS011;52677;50.898;10.854;2024-03-23T07:48:20;0.80;;;0.60;;
65896;SDS011;52677;50.898;10.854;2024-03-23T07:50:22;0.98;;;0.88;;
65896;SDS011;52677;50.898;10.854;2024-03-23T07:52:23;3.58;;;0.80;;
65896;SDS011;52677;50.898;10.854;2024-03-23T07:54:23;0.60;;;0.60;;
65896;SDS011;52677;50.898;10.854;2024-03-23T07:56:23;0.60;;;0.60;;
65896;SDS011;52677;50.898;10.854;2024-03-23T07:58:24;0.50;;;0.50;;
65896;SDS011;52677;50.898;10.854;2024-03-23T08:00:24;0.52;;;0.52;;
65896;SDS011;52677;50.898;10.854;2024-03-23T08:02:25;0.63;;;0.63;;
65896;SDS011;52677;50.898;10.854;2024-03-23T08:04:25;1.38;;;0.52;;
65896;SDS011;52677;50.898;10.854;2024-03-23T08:06:27;1.27;;;0.73;;
65896;SDS011;52677;50.898;10.854;2024-03-23T08:08:27;1.38;;;1.00;;
65896;SDS011;52677;50.898;10.854;2024-03-23T08:10:27;1.70;;;1.25;;
65896;SDS011;52677;50.898;10.854;2024-03-23T08:12:28;1.23;;;1.00;;
65896;SDS011;52677;50.898;10.854;2024-03-23T08:14:28;1.35;;;0.90;;
65896;SDS011;52677;50.898;10.854;2024-03-23T08:16:28;0.98;;;0.80;;
65896;SDS011;52677;50.898;10.854;2024-03-23T08:18:29;2.08;;;1.52;;
65896;SDS011;52677;50.898;10.854;2024-03-23T08:20:29;3.30;;;1.73;;
65896;SDS011;52677;50.898;10.854;2024-03-23T08:22:29;2.08;;;1.60;;
65896;SDS011;52677;50.898;10.854;2024-03-23T08:24:30;3.60;;;2.10;;
65896;SDS011;52677;50.898;10.854;2024-03-23T08:26:30;1.73;;;1.40;;
65896;SDS011;52677;50.898;10.854;2024-03-23T08:28:30;1.73;;;1.48;;
65896;SDS011;52677;50.898;10.854;2024-03-23T08:30:31;5.43;;;3.25;;
65896;SDS011;52677;50.898;10.854;2024-03-23T08:32:32;2.80;;;1.90;;
65896;SDS011;52677;50.898;10.854;2024-03-23T08:34:32;1.35;;;1.08;;
65896;SDS011;52677;50.898;10.854;2024-03-23T08:36:32;1.17;;;0.90;;
65896;SDS011;52677;50.898;10.854;2024-03-23T08:38:32;0.80;;;0.80;;
65896;SDS011;52677;50.898;10.854;2024-03-23T08:40:33;1.23;;;1.00;;
65896;SDS011;52677;50.898;10.854;2024-03-23T08:42:34;1.42;;;1.30;;
65896;SDS011;52677;50.898;10.854;2024-03-23T08:44:34;1.65;;;1.40;;
65896;SDS011;52677;50.898;10.854;2024-03-23T08:46:35;1.10;;;1.00;;
65896;SDS011;52677;50.898;10.854;2024-03-23T08:48:46;1.00;;;0.90;;
65896;SDS011;52677;50.898;10.854;2024-03-23T08:51:01;2.13;;;0.70;;
65896;SDS011;52677;50.898;10.854;2024-03-23T08:53:02;1.42;;;0.80;;
65896;SDS011;52677;50.898;10.854;2024-03-23T08:55:03;0.77;;;0.70;;
65896;SDS011;52677;50.898;10.854;2024-03-23T08:57:04;1.02;;;0.88;;
65896;SDS011;52677;50.898;10.854;2024-03-23T08:59:04;1.52;;;0.90;;
65896;SDS011;52677;50.898;10.854;2024-03-23T09:01:06;0.85;;;0.85;;
65896;SDS011;52677;50.898;10.854;2024-03-23T09:03:07;1.15;;;0.90;;
65896;SDS011;52677;50.898;10.854;2024-03-23T09:05:07;0.88;;;0.88;;
65896;SDS011;52677;50.898;10.854;2024-03-23T09:07:08;1.52;;;0.90;;
65896;SDS011;52677;50.898;10.854;2024-03-23T09:09:08;2.10;;;0.90;;
65896;SDS011;52677;50.898;10.854;2024-03-23T09:11:09;1.40;;;1.00;;
65896;SDS011;52677;50.898;10.854;2024-03-23T09:13:13;1.85;;;0.98;;
65896;SDS011;52677;50.898;10.854;2024-03-23T09:15:13;0.98;;;0.80;;
65896;SDS011;52677;50.898;10.854;2024-03-23T09:17:14;0.70;;;0.70;;
65896;SDS011;52677;50.898;10.854;2024-03-23T09:19:14;1.33;;;0.95;;
65896;SDS011;52677;50.898;10.854;2024-03-23T09:21:14;1.65;;;1.05;;
65896;SDS011;52677;50.898;10.854;2024-03-23T09:23:15;1.55;;;1.10;;
65896;SDS011;52677;50.898;10.854;2024-03-23T09:25:15;1.10;;;1.00;;
65896;SDS011;52677;50.898;10.854;2024-03-23T09:27:15;0.98;;;0.90;;
65896;SDS011;52677;50.898;10.854;2024-03-23T09:29:16;2.42;;;0.90;;
65896;SDS011;52677;50.898;10.854;2024-03-23T09:31:16;3.00;;;1.35;;
65896;SDS011;52677;50.898;10.854;2024-03-23T09:33:16;1.90;;;1.10;;
65896;SDS011;52677;50.898;10.854;2024-03-23T09:35:17;1.40;;;1.20;;
65896;SDS011;52677;50.898;10.854;2024-03-23T09:37:17;2.13;;;1.23;;
65896;SDS011;52677;50.898;10.854;2024-03-23T09:39:18;2.20;;;1.20;;
65896;SDS011;52677;50.898;10.854;2024-03-23T09:41:19;3.80;;;1.40;;
65896;SDS011;52677;50.898;10.854;2024-03-23T09:43:20;5.65;;;2.95;;
65896;SDS011;52677;50.898;10.854;2024-03-23T09:45:27;5.47;;;3.05;;
65896;SDS011;52677;50.898;10.854;2024-03-23T09:47:28;4.50;;;1.60;;
65896;SDS011;52677;50.898;10.854;2024-03-23T09:49:29;6.63;;;1.85;;
65896;SDS011;52677;50.898;10.854;2024-03-23T09:51:30;1.52;;;1.15;;
65896;SDS011;52677;50.898;10.854;2024-03-23T09:53:31;1.27;;;1.15;;
65896;SDS011;52677;50.898;10.854;2024-03-23T09:55:32;5.60;;;2.00;;
65896;SDS011;52677;50.898;10.854;2024-03-23T09:57:32;5.78;;;1.90;;
65896;SDS011;52677;50.898;10.854;2024-03-23T09:59:33;2.40;;;1.10;;
65896;SDS011;52677;50.898;10.854;2024-03-23T10:01:34;2.85;;;1.85;;
65896;SDS011;52677;50.898;10.854;2024-03-23T10:03:44;8.50;;;4.78;;
65896;SDS011;52677;50.898;10.854;2024-03-23T10:05:45;3.88;;;2.20;;
65896;SDS011;52677;50.898;10.854;2024-03-23T10:07:46;4.35;;;1.77;;
65896;SDS011;52677;50.898;10.854;2024-03-23T10:09:46;5.60;;;2.08;;
65896;SDS011;52677;50.898;10.854;2024-03-23T10:11:46;6.43;;;2.05;;
65896;SDS011;52677;50.898;10.854;2024-03-23T10:13:50;4.70;;;1.92;;
65896;SDS011;52677;50.898;10.854;2024-03-23T10:15:54;8.50;;;2.20;;
65896;SDS011;52677;50.898;10.854;2024-03-23T10:17:58;5.22;;;2.75;;
65896;SDS011;52677;50.898;10.854;2024-03-23T10:20:20;4.30;;;2.10;;
65896;SDS011;52677;50.898;10.854;2024-03-23T10:22:25;4.28;;;2.65;;
65896;SDS011;52677;50.898;10.854;2024-03-23T10:24:25;6.60;;;2.38;;
65896;SDS011;52677;50.898;10.854;2024-03-23T10:26:25;3.38;;;2.20;;
65896;SDS011;52677;50.898;10.854;2024-03-23T10:28:26;4.20;;;2.03;;
65896;SDS011;52677;50.898;10.854;2024-03-23T10:30:26;7.07;;;2.17;;
65896;SDS011;52677;50.898;10.854;2024-03-23T10:32:27;5.75;;;2.10;;
65896;SDS011;52677;50.898;10.854;2024-03-23T10:34:28;6.07;;;2.28;;
65896;SDS011;52677;50.898;10.854;2024-03-23T10:36:28;5.22;;;2.80;;
65896;SDS011;52677;50.898;10.854;2024-03-23T10:38:30;11.43;;;2.60;;
65896;SDS011;52677;50.898;10.854;2024-03-23T10:40:33;5.68;;;2.53;;
65896;SDS011;52677;50.898;10.854;2024-03-23T10:42:34;6.70;;;2.80;;
65896;SDS011;52677;50.898;10.854;2024-03-23T10:44:36;5.63;;;2.70;;
65896;SDS011;52677;50.898;10.854;2024-03-23T10:46:38;4.57;;;2.63;;
65896;SDS011;52677;50.898;10.854;2024-03-23T10:48:38;10.63;;;3.13;;
65896;SDS011;52677;50.898;10.854;2024-03-23T10:50:39;9.38;;;2.47;;
65896;SDS011;52677;50.898;10.854;2024-03-23T10:52:39;5.93;;;2.83;;
65896;SDS011;52677;50.898;10.854;2024-03-23T10:54:45;6.68;;;3.42;;
65896;SDS011;52677;50.898;10.854;2024-03-23T10:56:47;5.50;;;3.30;;
65896;SDS011;52677;50.898;10.854;2024-03-23T11:00:51;7.45;;;3.05;;
65896;SDS011;52677;50.898;10.854;2024-03-23T11:02:53;9.20;;;3.97;;
65896;SDS011;52677;50.898;10.854;2024-03-23T11:04:54;8.27;;;3.78;;
65896;SDS011;52677;50.898;10.854;2024-03-23T11:06:54;8.25;;;4.15;;
65896;SDS011;52677;50.898;10.854;2024-03-23T11:08:54;7.88;;;3.83;;
65896;SDS011;52677;50.898;10.854;2024-03-23T11:11:01;9.27;;;3.85;;
65896;SDS011;52677;50.898;10.854;2024-03-23T11:13:21;10.13;;;4.60;;
65896;SDS011;52677;50.898;10.854;2024-03-23T11:15:22;9.43;;;3.70;;
65896;SDS011;52677;50.898;10.854;2024-03-23T11:17:23;6.85;;;3.60;;
65896;SDS011;52677;50.898;10.854;2024-03-23T11:19:37;10.98;;;4.20;;
65896;SDS011;52677;50.898;10.854;2024-03-23T11:21:53;5.88;;;3.60;;
65896;SDS011;52677;50.898;10.854;2024-03-23T11:23:54;5.93;;;3.35;;
65896;SDS011;52677;50.898;10.854;2024-03-23T11:25:55;13.85;;;4.57;;
65896;SDS011;52677;50.898;10.854;2024-03-23T11:27:56;8.25;;;4.22;;
65896;SDS011;52677;50.898;10.854;2024-03-23T11:30:09;6.97;;;3.40;;
65896;SDS011;52677;50.898;10.854;2024-03-23T11:32:11;6.82;;;3.92;;
65896;SDS011;52677;50.898;10.854;2024-03-23T11:34:14;8.02;;;3.03;;
65896;SDS011;52677;50.898;10.854;2024-03-23T11:36:18;8.85;;;3.63;;
65896;SDS011;52677;50.898;10.854;2024-03-23T11:38:19;6.88;;;3.67;;
65896;SDS011;52677;50.898;10.854;2024-03-23T11:40:20;10.75;;;3.70;;
65896;SDS011;52677;50.898;10.854;2024-03-23T11:42:20;4.38;;;2.75;;
65896;SDS011;52677;50.898;10.854;2024-03-23T11:44:22;7.28;;;3.35;;
65896;SDS011;52677;50.898;10.854;2024-03-23T11:46:24;4.60;;;2.33;;
65896;SDS011;52677;50.898;10.854;2024-03-23T11:48:25;3.85;;;2.53;;
65896;SDS011;52677;50.898;10.854;2024-03-23T11:50:27;4.73;;;2.70;;
65896;SDS011;52677;50.898;10.854;2024-03-23T11:52:27;5.88;;;2.60;;
65896;SDS011;52677;50.898;10.854;2024-03-23T11:54:27;3.00;;;2.38;;
65896;SDS011;52677;50.898;10.854;2024-03-23T11:56:28;4.45;;;2.03;;
65896;SDS011;52677;50.898;10.854;2024-03-23T11:58:28;3.05;;;2.22;;
65896;SDS011;52677;50.898;10.854;2024-03-23T12:00:28;7.50;;;2.83;;
65896;SDS011;52677;50.898;10.854;2024-03-23T12:02:29;6.95;;;3.75;;
65896;SDS011;52677;50.898;10.854;2024-03-23T12:04:30;9.20;;;4.28;;
65896;SDS011;52677;50.898;10.854;2024-03-23T12:06:32;6.05;;;2.90;;
65896;SDS011;52677;50.898;10.854;2024-03-23T12:08:32;7.28;;;2.80;;
65896;SDS011;52677;50.898;10.854;2024-03-23T12:10:33;6.18;;;3.08;;
65896;SDS011;52677;50.898;10.854;2024-03-23T12:12:34;5.40;;;2.90;;
65896;SDS011;52677;50.898;10.854;2024-03-23T12:14:34;4.85;;;2.53;;
65896;SDS011;52677;50.898;10.854;2024-03-23T12:16:35;5.72;;;2.72;;
65896;SDS011;52677;50.898;10.854;2024-03-23T12:18:35;6.63;;;3.90;;
65896;SDS011;52677;50.898;10.854;2024-03-23T12:20:37;6.95;;;3.03;;
65896;SDS011;52677;50.898;10.854;2024-03-23T12:22:38;4.83;;;2.53;;
65896;SDS011;52677;50.898;10.854;2024-03-23T12:24:38;5.90;;;3.33;;
65896;SDS011;52677;50.898;10.854;2024-03-23T12:26:44;6.00;;;2.97;;
65896;SDS011;52677;50.898;10.854;2024-03-23T12:28:45;8.55;;;2.78;;
65896;SDS011;52677;50.898;10.854;2024-03-23T12:30:45;6.93;;;2.97;;
65896;SDS011;52677;50.898;10.854;2024-03-23T12:32:45;6.53;;;2.67;;
65896;SDS011;52677;50.898;10.854;2024-03-23T12:34:46;3.83;;;2.22;;
65896;SDS011;52677;50.898;10.854;2024-03-23T12:36:47;5.07;;;2.20;;
65896;SDS011;52677;50.898;10.854;2024-03-23T12:38:47;3.63;;;2.17;;
65896;SDS011;52677;50.898;10.854;2024-03-23T12:40:50;3.55;;;2.15;;
65896;SDS011;52677;50.898;10.854;2024-03-23T12:42:50;3.45;;;2.47;;
65896;SDS011;52677;50.898;10.854;2024-03-23T12:44:51;4.88;;;2.17;;